Time;durP1;ratioP1;P1;durP2;ratioP2;P2;SDS_P1;SDS_P2;PMS_P1;PMS_P2;Temp;Humidity;BMP_temperature;BMP_pressure;BME280_temperature;BME280_humidity;BME280_pressure;Samples;Min_cycle;Max_cycle;Signal;HPM_P1;HPM_P2
2023/01/09 00:00:57;;;;;;;3.57;3.27;;;14.00;78.40;;;;;;5092193;28;20451;-70
2023/01/09 00:03:24;;;;;;;3.77;2.67;;;14.00;78.40;;;;;;5092252;28;20512;-71
2023/01/09 00:05:53;;;;;;;3.33;2.60;;;14.00;78.40;;;;;;5088139;28;20530;-70
2023/01/09 00:08:20;;;;;;;4.07;2.47;;;14.10;78.40;;;;;;5092712;28;21001;-69
2023/01/09 00:10:49;;;;;;;2.50;2.30;;;14.10;78.10;;;;;;5082798;28;20483;-70
2023/01/09 00:13:16;;;;;;;2.83;2.37;;;14.10;78.00;;;;;;5072404;28;20447;-69
2023/01/09 00:15:43;;;;;;;1.93;1.73;;;14.10;77.90;;;;;;5085838;28;20512;-70
2023/01/09 00:18:10;;;;;;;3.47;1.90;;;14.10;77.70;;;;;;5075168;28;20539;-70
2023/01/09 00:20:37;;;;;;;1.63;1.50;;;14.10;77.80;;;;;;5083550;28;20490;-70
2023/01/09 00:23:05;;;;;;;1.70;1.60;;;14.10;77.90;;;;;;5092261;28;20512;-70
2023/01/09 00:25:32;;;;;;;2.10;1.33;;;14.10;77.60;;;;;;5085610;28;20962;-70
2023/01/09 00:27:59;;;;;;;1.83;1.50;;;14.10;77.60;;;;;;5071107;28;20469;-70
2023/01/09 00:30:26;;;;;;;2.30;2.03;;;14.10;77.50;;;;;;5071881;28;20443;-70
2023/01/09 00:32:54;;;;;;;1.30;1.20;;;14.10;77.60;;;;;;5071405;28;20451;-70
2023/01/09 00:35:23;;;;;;;0.97;0.90;;;14.10;77.20;;;;;;5071964;28;20451;-70
2023/01/09 00:37:50;;;;;;;0.80;0.80;;;14.10;77.30;;;;;;5071302;28;20954;-70
2023/01/09 00:40:19;;;;;;;0.80;0.80;;;14.10;77.30;;;;;;5070710;28;20569;-71
2023/01/09 00:42:50;;;;;;;1.20;1.10;;;14.00;76.90;;;;;;5071933;28;20806;-70
2023/01/09 00:45:20;;;;;;;2.00;1.20;;;14.00;77.40;;;;;;5071250;28;20455;-71
2023/01/09 00:47:50;;;;;;;1.07;1.00;;;14.00;77.30;;;;;;5072039;28;20482;-71
2023/01/09 00:50:21;;;;;;;0.97;0.93;;;14.00;77.40;;;;;;5070985;28;20919;-71
2023/01/09 00:52:50;;;;;;;1.37;0.90;;;14.00;77.60;;;;;;5071549;28;20923;-69
2023/01/09 00:55:18;;;;;;;0.77;0.70;;;14.00;77.50;;;;;;5070834;28;20454;-70
2023/01/09 00:57:45;;;;;;;0.90;0.90;;;14.00;77.60;;;;;;5093177;28;20442;-70
2023/01/09 01:00:13;;;;;;;0.80;0.80;;;14.00;77.90;;;;;;5107558;28;20837;-70
2023/01/09 01:02:40;;;;;;;0.67;0.60;;;14.00;77.60;;;;;;5083926;28;20537;-70
2023/01/09 01:08:09;;;;;;;0.53;0.53;;;13.90;77.80;;;;;;5028912;28;20907;-70
2023/01/09 01:10:37;;;;;;;1.70;0.73;;;13.80;78.20;;;;;;5079267;28;20442;-70
2023/01/09 01:13:04;;;;;;;0.93;0.70;;;13.80;78.30;;;;;;5079952;28;20443;-70
2023/01/09 01:15:31;;;;;;;0.80;0.80;;;13.80;78.30;;;;;;5071481;28;20526;-70
2023/01/09 01:17:58;;;;;;;0.40;0.40;;;13.70;78.50;;;;;;5070979;28;20449;-69
2023/01/09 01:20:25;;;;;;;0.50;0.40;;;13.80;78.50;;;;;;5071292;28;20493;-70
2023/01/09 01:22:52;;;;;;;0.43;0.43;;;13.80;78.00;;;;;;5080246;28;20458;-70
2023/01/09 01:25:19;;;;;;;0.43;0.43;;;13.70;77.80;;;;;;5078825;28;20448;-70
2023/01/09 01:27:47;;;;;;;0.50;0.50;;;13.70;77.90;;;;;;5071572;28;20471;-70
2023/01/09 01:30:16;;;;;;;0.40;0.40;;;13.60;77.80;;;;;;5070718;28;20447;-70
2023/01/09 01:32:43;;;;;;;0.30;0.30;;;13.60;77.70;;;;;;5078849;28;20527;-70
2023/01/09 01:35:10;;;;;;;0.40;0.40;;;13.60;77.50;;;;;;5090872;28;20453;-70
2023/01/09 01:37:38;;;;;;;0.80;0.40;;;13.50;77.80;;;;;;5076233;28;20986;-70
2023/01/09 01:40:07;;;;;;;0.40;0.40;;;13.50;77.80;;;;;;5070444;28;20479;-70
2023/01/09 01:42:36;;;;;;;0.40;0.40;;;13.50;77.60;;;;;;5077246;28;20461;-70
2023/01/09 01:45:09;;;;;;;0.40;0.30;;;13.60;78.00;;;;;;5091038;28;20453;-70
2023/01/09 01:47:47;;;;;;;0.53;0.53;;;13.60;77.80;;;;;;5091682;28;20518;-70
2023/01/09 01:50:20;;;;;;;0.50;0.50;;;13.60;77.90;;;;;;5074372;28;20455;-70
2023/01/09 01:52:56;;;;;;;0.40;0.40;;;13.60;77.50;;;;;;5082832;28;20454;-70
2023/01/09 01:55:26;;;;;;;0.40;0.40;;;13.60;77.60;;;;;;5095687;28;20430;-70
2023/01/09 01:57:58;;;;;;;0.40;0.40;;;13.60;77.60;;;;;;5107601;28;20448;-70
2023/01/09 02:00:31;;;;;;;0.43;0.43;;;13.60;77.10;;;;;;5114111;28;20798;-70
2023/01/09 02:02:59;;;;;;;0.63;0.50;;;13.60;77.00;;;;;;5094073;28;20442;-70
2023/01/09 02:05:26;;;;;;;0.53;0.50;;;13.60;77.10;;;;;;5095486;28;20438;-70
2023/01/09 02:07:52;;;;;;;0.43;0.43;;;13.60;77.10;;;;;;5094729;28;20442;-70
2023/01/09 02:10:22;;;;;;;1.10;0.50;;;13.50;76.90;;;;;;5094738;28;20452;-70
2023/01/09 02:12:49;;;;;;;0.60;0.60;;;13.50;77.00;;;;;;5087568;28;20462;-70
2023/01/09 02:15:19;;;;;;;0.77;0.57;;;13.50;77.20;;;;;;5091366;28;20473;-70
2023/01/09 02:18:13;;;;;;;1.00;0.70;;;13.60;77.20;;;;;;5094986;28;20449;-70
2023/01/09 02:20:47;;;;;;;0.47;0.47;;;13.50;76.80;;;;;;5095135;28;20999;-70
2023/01/09 02:23:58;;;;;;;0.40;0.40;;;13.50;77.10;;;;;;5082809;28;20516;-70
2023/01/09 02:27:16;;;;;;;0.50;0.50;;;13.50;77.50;;;;;;5074533;28;20473;-70
2023/01/09 02:30:10;;;;;;;0.60;0.60;;;13.40;77.40;;;;;;4973401;28;20454;-70
2023/01/09 02:33:01;;;;;;;0.70;0.70;;;13.40;77.80;;;;;;4978364;28;20454;-70
2023/01/09 02:35:49;;;;;;;0.57;0.57;;;13.30;78.20;;;;;;5071849;28;20447;-69
2023/01/09 02:38:24;;;;;;;1.47;0.70;;;13.20;78.40;;;;;;5044414;28;20458;-70
2023/01/09 02:40:58;;;;;;;0.40;0.40;;;13.20;78.60;;;;;;5094816;28;20462;-70
2023/01/09 02:43:26;;;;;;;0.50;0.50;;;13.10;78.90;;;;;;5082661;28;20439;-70
2023/01/09 02:45:53;;;;;;;1.07;0.60;;;13.00;79.30;;;;;;5074068;28;20451;-70
2023/01/09 02:48:23;;;;;;;0.80;0.80;;;12.90;79.90;;;;;;5078784;28;20513;-69
2023/01/09 02:50:59;;;;;;;0.80;0.80;;;13.00;80.40;;;;;;5093953;28;20478;-70
2023/01/09 02:53:58;;;;;;;0.73;0.73;;;13.00;80.70;;;;;;5092746;28;20442;-70
2023/01/09 02:56:48;;;;;;;0.63;0.63;;;13.10;80.80;;;;;;5094339;28;20928;-69
2023/01/09 02:59:26;;;;;;;0.97;0.87;;;13.10;80.50;;;;;;5070865;28;20459;-70
2023/01/09 03:02:11;;;;;;;1.93;0.90;;;13.10;81.10;;;;;;5083205;28;20438;-70
2023/01/09 03:04:52;;;;;;;1.07;1.00;;;13.00;81.50;;;;;;5079859;28;20446;-69
2023/01/09 03:07:24;;;;;;;1.27;0.90;;;12.90;81.90;;;;;;5093979;28;20831;-69
2023/01/09 03:09:58;;;;;;;0.67;0.67;;;12.80;83.10;;;;;;5094043;28;20423;-69
2023/01/09 03:12:29;;;;;;;0.50;0.50;;;12.50;82.30;;;;;;5092967;28;20435;-69
2023/01/09 03:15:00;;;;;;;0.63;0.60;;;12.40;81.10;;;;;;5094359;28;20454;-69
2023/01/09 03:17:31;;;;;;;0.40;0.40;;;12.30;81.40;;;;;;5093348;28;20530;-69
2023/01/09 03:20:02;;;;;;;0.50;0.50;;;12.20;82.60;;;;;;5093775;28;20493;-69
2023/01/09 03:22:29;;;;;;;0.50;0.50;;;12.20;81.70;;;;;;5090363;28;20442;-69
2023/01/09 03:24:56;;;;;;;0.50;0.50;;;12.10;81.90;;;;;;5074064;28;20819;-69
2023/01/09 03:27:23;;;;;;;0.40;0.40;;;12.10;81.00;;;;;;5073238;28;20500;-69
2023/01/09 03:29:52;;;;;;;0.50;0.47;;;12.00;81.20;;;;;;5091146;28;20453;-69
2023/01/09 03:32:19;;;;;;;3.13;0.50;;;11.90;80.70;;;;;;5092448;28;20463;-69
2023/01/09 03:34:49;;;;;;;0.40;0.40;;;11.80;81.40;;;;;;5098075;28;20450;-69
2023/01/09 03:37:17;;;;;;;1.37;0.50;;;11.70;81.50;;;;;;5093665;28;20448;-69
2023/01/09 03:39:44;;;;;;;1.40;0.60;;;11.60;81.60;;;;;;5093496;28;20482;-69
2023/01/09 03:42:11;;;;;;;0.40;0.40;;;11.60;81.60;;;;;;5093885;28;20550;-69
2023/01/09 03:44:38;;;;;;;0.40;0.40;;;11.60;81.70;;;;;;5073135;28;20936;-69
2023/01/09 03:47:05;;;;;;;0.63;0.60;;;11.70;81.60;;;;;;5074062;28;20443;-70
2023/01/09 03:49:31;;;;;;;1.27;0.60;;;11.70;81.40;;;;;;5073847;28;20462;-70
2023/01/09 03:51:58;;;;;;;1.57;0.57;;;11.80;80.60;;;;;;5091197;28;20481;-70
2023/01/09 03:54:27;;;;;;;0.83;0.50;;;11.80;80.40;;;;;;5074318;28;20546;-70
2023/01/09 03:56:53;;;;;;;0.40;0.40;;;11.90;80.40;;;;;;5079844;28;20444;-70
2023/01/09 03:59:20;;;;;;;1.20;0.70;;;11.80;79.40;;;;;;5112787;28;20459;-70
2023/01/09 04:01:47;;;;;;;1.43;0.67;;;11.90;79.70;;;;;;5104231;28;20484;-70
2023/01/09 04:04:14;;;;;;;1.60;0.50;;;11.90;79.30;;;;;;5092518;28;21072;-70
2023/01/09 04:06:41;;;;;;;1.13;0.40;;;11.90;79.20;;;;;;5092945;28;20533;-70
2023/01/09 04:09:07;;;;;;;0.43;0.43;;;11.80;78.90;;;;;;5092429;28;20945;-69
2023/01/09 04:11:36;;;;;;;0.77;0.50;;;11.70;78.80;;;;;;5092711;28;20450;-69
2023/01/09 04:14:03;;;;;;;0.83;0.50;;;11.80;78.90;;;;;;5086200;28;20461;-69
2023/01/09 04:16:30;;;;;;;0.80;0.50;;;11.90;79.60;;;;;;5092612;28;20963;-69
2023/01/09 04:18:56;;;;;;;0.57;0.47;;;11.90;77.70;;;;;;5092540;28;20453;-70
2023/01/09 04:21:23;;;;;;;1.43;0.30;;;11.90;77.70;;;;;;5097389;28;20474;-73
2023/01/09 04:23:50;;;;;;;0.30;0.30;;;11.80;77.40;;;;;;5090763;28;20519;-69
2023/01/09 04:26:17;;;;;;;0.40;0.40;;;11.90;77.40;;;;;;5114984;28;20442;-69
2023/01/09 04:28:45;;;;;;;0.37;0.37;;;11.80;77.10;;;;;;5115748;28;20469;-70
2023/01/09 04:31:12;;;;;;;0.63;0.63;;;11.80;76.90;;;;;;5114946;28;20439;-70
2023/01/09 04:33:39;;;;;;;1.27;0.60;;;11.70;76.80;;;;;;5116052;28;20446;-70
2023/01/09 04:36:06;;;;;;;0.47;0.47;;;11.70;77.00;;;;;;5103175;28;20450;-70
2023/01/09 04:38:33;;;;;;;0.90;0.50;;;11.70;77.20;;;;;;5104433;28;20930;-70
2023/01/09 04:41:00;;;;;;;0.40;0.40;;;11.70;77.40;;;;;;5106883;28;20478;-71
2023/01/09 04:43:27;;;;;;;1.13;0.53;;;11.70;77.00;;;;;;5114401;28;20457;-70
2023/01/09 04:45:55;;;;;;;3.13;0.60;;;11.60;77.20;;;;;;5106085;28;20449;-70
2023/01/09 04:48:22;;;;;;;0.40;0.40;;;11.60;77.10;;;;;;5098045;28;20458;-69
2023/01/09 04:50:49;;;;;;;0.57;0.50;;;11.50;77.20;;;;;;5099733;28;20837;-70
2023/01/09 04:53:16;;;;;;;1.50;0.50;;;11.50;77.40;;;;;;5100152;28;20433;-69
2023/01/09 04:55:42;;;;;;;2.57;0.63;;;11.40;77.60;;;;;;5092656;28;20457;-68
2023/01/09 04:58:09;;;;;;;1.30;0.60;;;11.40;77.50;;;;;;5100123;28;20446;-68
2023/01/09 05:00:36;;;;;;;0.87;0.50;;;11.30;77.20;;;;;;5104310;28;20997;-68
2023/01/09 05:03:04;;;;;;;1.37;0.70;;;11.30;77.80;;;;;;5091121;28;20444;-69
2023/01/09 05:05:31;;;;;;;0.50;0.50;;;11.30;77.90;;;;;;5091533;28;20968;-70
2023/01/09 05:07:58;;;;;;;0.50;0.50;;;11.30;78.00;;;;;;5091470;28;21037;-69
2023/01/09 05:10:25;;;;;;;2.27;0.77;;;11.40;77.10;;;;;;5091498;28;20434;-70
2023/01/09 05:12:52;;;;;;;0.80;0.60;;;11.50;76.30;;;;;;5086449;28;20447;-70
2023/01/09 05:15:19;;;;;;;1.07;0.90;;;11.50;75.90;;;;;;5070996;28;20449;-70
2023/01/09 05:17:46;;;;;;;1.63;0.80;;;11.50;75.60;;;;;;5071700;28;20451;-70
2023/01/09 05:20:15;;;;;;;1.13;0.60;;;11.50;75.60;;;;;;5070918;28;20483;-69
2023/01/09 05:22:45;;;;;;;1.07;0.67;;;11.50;75.10;;;;;;5071784;28;20444;-70
2023/01/09 05:25:12;;;;;;;0.57;0.53;;;11.50;75.20;;;;;;5080917;28;20887;-70
2023/01/09 05:27:42;;;;;;;2.27;0.90;;;11.60;75.10;;;;;;5076967;28;20463;-70
2023/01/09 05:30:10;;;;;;;1.40;0.70;;;11.50;75.00;;;;;;5070771;28;20821;-70
2023/01/09 05:32:37;;;;;;;2.17;0.77;;;11.50;74.60;;;;;;5071747;28;20448;-69
2023/01/09 05:35:05;;;;;;;0.90;0.50;;;11.40;74.70;;;;;;5071679;28;20443;-69
2023/01/09 05:37:33;;;;;;;0.60;0.60;;;11.40;74.50;;;;;;5071357;28;20454;-69
2023/01/09 05:40:00;;;;;;;2.23;0.70;;;11.40;74.20;;;;;;5071744;28;20807;-69
2023/01/09 05:42:26;;;;;;;1.77;0.70;;;11.40;74.20;;;;;;5070972;28;20451;-69
2023/01/09 05:44:53;;;;;;;1.03;0.70;;;11.40;74.10;;;;;;5070725;28;20451;-69
2023/01/09 05:47:20;;;;;;;0.90;0.60;;;11.40;74.60;;;;;;5085184;28;20450;-70
2023/01/09 05:49:47;;;;;;;1.33;0.70;;;11.50;73.60;;;;;;5076854;28;20466;-69
2023/01/09 05:52:14;;;;;;;0.77;0.60;;;11.50;73.40;;;;;;5070468;28;20479;-69
2023/01/09 05:54:42;;;;;;;0.33;0.33;;;11.50;73.80;;;;;;5071278;28;20453;-69
2023/01/09 05:57:09;;;;;;;1.47;0.57;;;11.50;72.80;;;;;;5089178;28;20445;-70
2023/01/09 05:59:36;;;;;;;0.97;0.70;;;11.50;73.10;;;;;;5111021;28;20933;-69
2023/01/09 06:02:02;;;;;;;0.53;0.50;;;11.60;72.50;;;;;;5090357;28;21004;-69
2023/01/09 06:04:29;;;;;;;0.77;0.70;;;11.60;72.90;;;;;;5090172;28;20446;-70
2023/01/09 06:06:56;;;;;;;1.13;0.60;;;11.60;72.80;;;;;;5081995;28;20783;-69
2023/01/09 06:09:23;;;;;;;1.80;0.60;;;11.60;71.90;;;;;;5071143;28;20458;-69
2023/01/09 06:11:53;;;;;;;0.67;0.50;;;11.60;71.80;;;;;;5073594;28;20538;-69
2023/01/09 06:14:20;;;;;;;0.50;0.50;;;11.60;71.50;;;;;;5090298;28;20426;-69
2023/01/09 06:16:47;;;;;;;1.30;0.57;;;11.50;71.60;;;;;;5082078;28;20485;-69
2023/01/09 06:19:14;;;;;;;0.87;0.60;;;11.60;71.50;;;;;;5081820;28;20485;-69
2023/01/09 06:21:41;;;;;;;0.63;0.60;;;11.70;71.20;;;;;;5091085;28;20489;-69
2023/01/09 06:24:08;;;;;;;2.17;0.70;;;11.70;71.10;;;;;;5090583;28;20469;-69
2023/01/09 06:26:35;;;;;;;0.50;0.50;;;11.70;71.10;;;;;;5075847;28;20475;-69
2023/01/09 06:29:03;;;;;;;0.70;0.70;;;11.70;72.10;;;;;;5070765;28;20447;-69
2023/01/09 06:31:30;;;;;;;1.60;0.73;;;11.70;71.00;;;;;;5070224;28;20443;-69
2023/01/09 06:33:57;;;;;;;1.03;0.70;;;11.60;70.80;;;;;;5078299;28;20485;-69
2023/01/09 06:36:24;;;;;;;0.43;0.43;;;11.70;70.90;;;;;;5090597;28;20446;-69
2023/01/09 06:38:50;;;;;;;0.70;0.70;;;11.70;70.80;;;;;;5094777;28;20482;-70
2023/01/09 06:41:17;;;;;;;2.33;0.67;;;11.80;70.40;;;;;;5093100;28;20492;-70
2023/01/09 06:43:44;;;;;;;4.87;0.70;;;11.80;70.30;;;;;;5088526;28;20970;-69
2023/01/09 06:46:12;;;;;;;1.33;0.90;;;11.80;70.30;;;;;;5077240;28;20442;-70
2023/01/09 06:48:39;;;;;;;0.73;0.70;;;11.80;70.00;;;;;;5094275;28;20452;-70
2023/01/09 06:51:06;;;;;;;3.17;1.07;;;11.80;69.80;;;;;;5094213;28;20478;-69
2023/01/09 06:53:33;;;;;;;1.67;1.00;;;11.60;69.60;;;;;;5092975;28;20465;-69
2023/01/09 06:56:01;;;;;;;1.87;0.70;;;11.60;70.10;;;;;;5092963;28;20453;-69
2023/01/09 06:58:28;;;;;;;2.80;1.10;;;11.60;69.90;;;;;;5093846;28;20443;-69
2023/01/09 07:00:55;;;;;;;4.17;1.13;;;11.60;70.00;;;;;;5080656;28;20822;-69
2023/01/09 07:03:23;;;;;;;1.87;0.83;;;11.50;69.80;;;;;;5093378;28;20438;-69
2023/01/09 07:05:50;;;;;;;2.17;1.10;;;11.50;69.30;;;;;;5093453;28;20988;-70
2023/01/09 07:08:17;;;;;;;3.60;1.77;;;11.40;69.60;;;;;;5086748;28;21035;-69
2023/01/09 07:10:45;;;;;;;3.00;1.30;;;11.40;69.60;;;;;;5083419;28;20462;-70
2023/01/09 07:13:12;;;;;;;3.00;1.30;;;11.40;70.00;;;;;;5094337;28;20533;-70
2023/01/09 07:15:39;;;;;;;3.13;1.93;;;11.40;69.70;;;;;;5088877;28;20533;-70
2023/01/09 07:18:05;;;;;;;3.77;2.17;;;11.40;69.50;;;;;;5090909;28;20798;-70
2023/01/09 07:20:34;;;;;;;1.57;1.07;;;11.40;69.30;;;;;;5093426;28;20907;-70
2023/01/09 07:23:00;;;;;;;2.77;1.20;;;11.40;69.20;;;;;;5093962;28;20450;-71
2023/01/09 07:25:27;;;;;;;6.13;2.83;;;11.40;68.00;;;;;;5089881;28;20446;-71
2023/01/09 07:27:54;;;;;;;3.93;1.30;;;11.50;68.50;;;;;;5078832;28;21001;-70
2023/01/09 07:30:21;;;;;;;6.90;2.27;;;11.60;68.20;;;;;;5076324;28;20465;-70
2023/01/09 07:32:48;;;;;;;6.73;1.37;;;11.50;67.80;;;;;;5090763;28;20538;-70
2023/01/09 07:35:15;;;;;;;3.73;1.10;;;11.60;67.50;;;;;;5075045;28;20447;-71
2023/01/09 07:37:43;;;;;;;5.10;1.50;;;11.50;66.20;;;;;;5074911;28;20470;-72
2023/01/09 07:40:11;;;;;;;1.60;1.00;;;11.60;67.20;;;;;;5074130;28;20853;-70
2023/01/09 07:42:38;;;;;;;2.57;1.13;;;11.50;66.00;;;;;;5072689;28;20487;-71
2023/01/09 07:45:06;;;;;;;1.40;0.93;;;11.60;66.70;;;;;;5074234;28;20483;-71
2023/01/09 07:47:33;;;;;;;3.07;1.30;;;11.70;66.70;;;;;;5087992;28;20451;-70
2023/01/09 07:50:00;;;;;;;2.90;1.20;;;11.70;66.10;;;;;;5079220;28;20454;-71
2023/01/09 07:52:27;;;;;;;2.80;1.40;;;11.80;66.10;;;;;;5092221;28;20478;-71
2023/01/09 07:54:55;;;;;;;5.17;2.10;;;11.80;65.90;;;;;;5080051;28;20555;-71
2023/01/09 07:57:22;;;;;;;2.80;1.50;;;11.80;65.90;;;;;;5084854;28;20506;-69
2023/01/09 07:59:49;;;;;;;2.50;1.20;;;11.80;65.80;;;;;;5077166;28;20491;-69
2023/01/09 08:02:16;;;;;;;3.23;1.20;;;11.80;65.10;;;;;;5085883;28;20565;-68
2023/01/09 08:04:43;;;;;;;2.33;0.90;;;11.80;65.40;;;;;;5093561;28;20454;-69
2023/01/09 08:07:10;;;;;;;3.50;1.60;;;11.90;65.50;;;;;;5075446;28;20483;-69
2023/01/09 08:09:37;;;;;;;2.20;1.47;;;12.00;64.50;;;;;;5072237;28;20453;-69
2023/01/09 08:12:06;;;;;;;2.77;1.50;;;12.00;65.30;;;;;;5086900;28;20479;-70
2023/01/09 08:14:34;;;;;;;2.90;2.30;;;12.10;64.90;;;;;;5092470;28;20533;-71
2023/01/09 08:17:02;;;;;;;1.93;1.27;;;12.20;64.70;;;;;;5093006;28;20550;-71
2023/01/09 08:19:29;;;;;;;4.23;1.20;;;12.40;64.30;;;;;;5091428;28;20500;-70
2023/01/09 08:21:56;;;;;;;3.77;1.10;;;12.50;63.80;;;;;;5092638;28;20492;-70
2023/01/09 08:24:23;;;;;;;2.43;1.13;;;12.50;63.00;;;;;;5091686;28;20934;-70
2023/01/09 08:26:50;;;;;;;4.10;1.20;;;12.60;63.30;;;;;;5092856;28;20475;-70
2023/01/09 08:29:18;;;;;;;1.33;0.97;;;12.70;62.90;;;;;;5092735;28;20529;-70
2023/01/09 08:31:45;;;;;;;1.90;1.17;;;12.70;62.20;;;;;;5092463;28;20504;-70
2023/01/09 08:34:12;;;;;;;1.93;1.03;;;12.80;62.30;;;;;;5092375;28;20538;-71
2023/01/09 08:36:39;;;;;;;1.90;1.23;;;13.00;62.10;;;;;;5092097;28;20485;-70
2023/01/09 08:39:06;;;;;;;1.70;1.03;;;13.00;61.70;;;;;;5092174;28;20499;-70
2023/01/09 08:47:05;;;;;;;3.63;1.27;;;12.90;62.00;;;;;;5092412;28;20419;-69
2023/01/09 08:49:34;;;;;;;2.00;0.90;;;12.90;61.50;;;;;;5091737;28;20459;-70
2023/01/09 08:52:01;;;;;;;4.40;2.57;;;12.70;61.30;;;;;;5091378;28;20987;-71
2023/01/09 08:54:28;;;;;;;3.83;1.30;;;12.60;62.10;;;;;;5091658;28;20462;-71
2023/01/09 08:56:55;;;;;;;2.90;1.53;;;12.60;62.10;;;;;;5095642;28;20538;-70
2023/01/09 08:59:24;;;;;;;1.47;0.90;;;12.50;62.00;;;;;;5111295;28;20532;-70
2023/01/09 09:01:50;;;;;;;2.90;1.13;;;12.50;62.40;;;;;;5102479;28;20480;-71
2023/01/09 09:04:17;;;;;;;4.57;2.67;;;12.40;62.60;;;;;;5091994;28;20541;-69
2023/01/09 09:06:44;;;;;;;2.43;1.40;;;12.50;62.50;;;;;;5091052;28;20454;-71
2023/01/09 09:09:12;;;;;;;1.37;0.97;;;12.50;62.70;;;;;;5092063;28;20511;-71
2023/01/09 09:11:40;;;;;;;3.87;2.70;;;12.40;61.90;;;;;;5090852;28;20446;-71
2023/01/09 09:16:50;;;;;;;4.93;2.37;;;12.30;62.60;;;;;;5090429;28;20441;-69
2023/01/09 09:19:18;;;;;;;3.60;2.27;;;12.30;62.70;;;;;;5091406;28;20449;-69
2023/01/09 09:21:44;;;;;;;2.60;1.10;;;12.40;63.90;;;;;;5090921;28;20570;-71
2023/01/09 09:24:11;;;;;;;1.10;0.90;;;12.50;63.20;;;;;;5091733;28;20870;-69
2023/01/09 09:26:38;;;;;;;2.40;1.60;;;12.60;62.90;;;;;;5090925;28;20466;-68
2023/01/09 09:29:05;;;;;;;4.37;2.90;;;12.60;62.30;;;;;;5090586;28;20864;-70
2023/01/09 09:31:32;;;;;;;2.13;1.43;;;12.50;62.10;;;;;;5089952;28;20530;-70
2023/01/09 09:34:01;;;;;;;3.93;2.40;;;12.50;62.70;;;;;;5091111;28;20541;-70
2023/01/09 09:36:29;;;;;;;4.93;2.40;;;12.50;61.90;;;;;;5089878;28;20962;-70
2023/01/09 09:38:56;;;;;;;3.60;2.20;;;12.50;62.60;;;;;;5091061;28;20538;-70
2023/01/09 09:44:46;;;;;;;1.50;0.90;;;12.60;62.50;;;;;;5091087;28;20418;-70
2023/01/09 09:47:31;;;;;;;2.47;1.90;;;12.60;62.60;;;;;;5070842;28;20471;-70
2023/01/09 09:50:09;;;;;;;4.50;1.90;;;12.70;62.50;;;;;;5082116;28;20465;-70
2023/01/09 09:52:45;;;;;;;3.00;1.30;;;12.80;62.00;;;;;;5089533;28;20568;-70
2023/01/09 09:55:17;;;;;;;2.20;0.90;;;12.80;61.50;;;;;;5091467;28;20483;-70
2023/01/09 09:57:45;;;;;;;1.47;1.00;;;12.90;61.60;;;;;;5101092;28;20521;-70
2023/01/09 10:00:18;;;;;;;4.50;2.53;;;13.00;61.60;;;;;;5111207;28;20481;-70
2023/01/09 10:02:50;;;;;;;2.00;1.20;;;13.00;61.50;;;;;;5092950;28;20770;-70
2023/01/09 10:05:25;;;;;;;2.43;1.00;;;13.10;61.80;;;;;;5090884;28;20966;-70
2023/01/09 10:07:53;;;;;;;1.63;0.93;;;13.20;61.00;;;;;;5091193;28;20469;-70
2023/01/09 10:10:28;;;;;;;4.67;3.17;;;13.30;61.40;;;;;;5077627;28;20935;-70
2023/01/09 10:12:57;;;;;;;2.40;1.40;;;13.40;60.50;;;;;;5087189;28;20688;-70
2023/01/09 10:15:41;;;;;;;4.33;1.27;;;13.50;59.90;;;;;;5093819;28;20767;-70
2023/01/09 10:18:20;;;;;;;4.63;3.00;;;13.60;59.50;;;;;;5095234;28;20430;-70
2023/01/09 10:21:09;;;;;;;2.87;1.80;;;13.80;59.30;;;;;;5094482;28;20878;-70
2023/01/09 10:24:07;;;;;;;5.33;3.33;;;13.90;58.60;;;;;;5094065;28;20462;-70
2023/01/09 10:26:42;;;;;;;3.40;1.77;;;13.70;58.30;;;;;;5093162;28;20538;-70
2023/01/09 10:29:42;;;;;;;4.93;1.87;;;13.80;59.00;;;;;;5094352;28;20922;-70
2023/01/09 10:32:34;;;;;;;3.07;1.33;;;13.80;59.20;;;;;;5074388;28;20990;-70
2023/01/09 10:35:18;;;;;;;14.67;9.13;;;13.80;58.50;;;;;;5074435;28;20439;-70
2023/01/09 10:37:51;;;;;;;2.07;1.67;;;13.70;59.10;;;;;;5073989;28;20526;-70
2023/01/09 10:40:23;;;;;;;4.80;2.30;;;13.50;58.60;;;;;;5074672;28;20496;-70
2023/01/09 10:42:54;;;;;;;4.20;2.43;;;13.40;58.90;;;;;;5074525;28;20502;-70
2023/01/09 10:45:25;;;;;;;3.07;1.40;;;13.40;59.10;;;;;;5074460;28;20523;-70
2023/01/09 10:47:59;;;;;;;4.73;2.23;;;13.40;58.90;;;;;;5073728;28;20843;-70
2023/01/09 10:50:33;;;;;;;3.73;2.50;;;13.30;58.50;;;;;;5073488;28;20969;-70
2023/01/09 10:53:12;;;;;;;5.00;2.50;;;13.40;58.90;;;;;;5073944;28;20459;-70
2023/01/09 10:55:43;;;;;;;3.97;2.90;;;13.70;58.90;;;;;;5073259;28;20530;-70
2023/01/09 10:58:12;;;;;;;2.70;1.17;;;13.80;58.60;;;;;;5101720;28;20456;-70
2023/01/09 11:00:40;;;;;;;1.80;1.20;;;13.90;58.00;;;;;;5113858;28;21017;-70
2023/01/09 11:03:12;;;;;;;2.43;1.47;;;14.10;57.90;;;;;;5073470;28;21030;-70
2023/01/09 11:05:39;;;;;;;4.00;2.10;;;14.20;57.40;;;;;;5092445;28;20442;-70
2023/01/09 11:08:18;;;;;;;5.57;4.27;;;14.40;57.50;;;;;;5093998;28;20935;-70
2023/01/09 11:10:48;;;;;;;5.03;2.10;;;14.60;57.20;;;;;;5093337;28;20439;-70
2023/01/09 11:13:20;;;;;;;1.27;1.10;;;14.80;56.60;;;;;;5094416;28;20485;-70
2023/01/09 11:15:58;;;;;;;3.97;1.80;;;14.80;55.90;;;;;;5093007;28;20521;-70
2023/01/09 11:18:25;;;;;;;3.87;1.83;;;14.80;56.10;;;;;;5093322;28;20441;-70
2023/01/09 11:20:53;;;;;;;2.53;1.13;;;14.60;56.10;;;;;;5093616;28;20498;-69
2023/01/09 11:23:39;;;;;;;3.60;2.10;;;14.50;56.20;;;;;;5093483;28;20533;-70
2023/01/09 11:26:06;;;;;;;3.27;1.93;;;14.20;57.60;;;;;;5093861;28;20437;-70
2023/01/09 11:28:33;;;;;;;2.83;1.47;;;14.00;59.10;;;;;;5093041;28;20958;-70
2023/01/09 11:31:02;;;;;;;2.87;1.17;;;13.60;58.80;;;;;;5093569;28;20938;-70
2023/01/09 11:33:30;;;;;;;2.13;1.60;;;13.50;59.90;;;;;;5093327;28;20841;-70
2023/01/09 11:36:05;;;;;;;5.27;1.70;;;13.40;60.20;;;;;;5093769;28;20859;-70
2023/01/09 11:38:44;;;;;;;2.03;1.13;;;13.20;61.60;;;;;;5092868;28;20942;-70
2023/01/09 11:41:18;;;;;;;2.93;1.90;;;13.20;62.50;;;;;;5093783;28;20445;-70
2023/01/09 11:43:47;;;;;;;3.43;1.27;;;13.30;62.60;;;;;;5053637;28;20571;-69
2023/01/09 11:46:33;;;;;;;2.07;1.20;;;13.40;63.00;;;;;;5093252;28;20807;-70
2023/01/09 11:49:01;;;;;;;3.83;1.13;;;13.30;63.50;;;;;;5093607;28;20521;-70
2023/01/09 11:51:31;;;;;;;2.80;1.90;;;13.10;64.60;;;;;;5092611;28;20478;-70
2023/01/09 11:54:16;;;;;;;2.43;1.37;;;12.90;66.10;;;;;;5041230;28;20442;-69
2023/01/09 11:56:45;;;;;;;2.47;1.50;;;13.00;67.30;;;;;;5094029;28;20480;-70
2023/01/09 11:59:14;;;;;;;1.87;1.30;;;13.20;66.90;;;;;;5113110;28;20962;-69
2023/01/09 12:02:05;;;;;;;2.73;1.10;;;13.30;66.60;;;;;;5104314;28;20864;-69
2023/01/09 12:04:37;;;;;;;3.03;1.23;;;13.60;66.50;;;;;;5092648;28;20513;-69
2023/01/09 12:07:25;;;;;;;4.93;1.27;;;13.90;64.90;;;;;;5085980;28;20919;-69
2023/01/09 12:10:01;;;;;;;3.37;1.43;;;14.30;64.30;;;;;;5078600;28;20485;-69
2023/01/09 12:12:36;;;;;;;2.20;1.30;;;14.60;62.50;;;;;;5072049;28;20462;-69
2023/01/09 12:15:21;;;;;;;3.20;1.23;;;14.70;61.40;;;;;;5071923;28;20440;-69
2023/01/09 12:18:02;;;;;;;3.63;1.47;;;14.80;61.70;;;;;;5071732;28;20439;-69
2023/01/09 12:20:42;;;;;;;2.40;1.50;;;14.80;61.20;;;;;;5071780;28;20458;-69
2023/01/09 12:23:25;;;;;;;3.07;1.70;;;15.00;60.70;;;;;;5072128;28;20469;-73
2023/01/09 12:26:03;;;;;;;2.57;1.33;;;14.50;60.50;;;;;;5082321;28;20476;-75
2023/01/09 12:28:53;;;;;;;4.23;1.17;;;14.20;62.20;;;;;;5090359;28;20482;-74
2023/01/09 12:31:30;;;;;;;3.07;1.50;;;14.00;62.60;;;;;;5093063;28;20757;-75
2023/01/09 12:34:10;;;;;;;2.60;1.00;;;13.70;62.70;;;;;;5025897;28;20914;-77
2023/01/09 12:36:46;;;;;;;3.80;1.70;;;13.60;63.80;;;;;;5076526;28;20447;-75
2023/01/09 12:39:29;;;;;;;4.17;1.80;;;13.40;64.30;;;;;;5087298;28;20517;-75
2023/01/09 12:42:11;;;;;;;4.07;1.57;;;13.30;65.60;;;;;;5093163;28;20979;-77
2023/01/09 12:44:50;;;;;;;3.10;1.27;;;13.20;66.10;;;;;;5075998;28;20426;-76
2023/01/09 12:47:43;;;;;;;3.93;1.30;;;13.20;66.10;;;;;;5072834;28;20439;-75
2023/01/09 12:50:35;;;;;;;4.53;1.30;;;13.30;66.40;;;;;;5073229;28;20463;-74
2023/01/09 12:53:11;;;;;;;1.67;1.23;;;13.20;66.60;;;;;;5077292;28;20455;-75
2023/01/09 12:55:43;;;;;;;2.87;1.67;;;13.10;66.70;;;;;;5092276;28;20522;-74
2023/01/09 12:58:22;;;;;;;4.67;1.60;;;13.00;67.00;;;;;;5093421;28;20509;-75
2023/01/09 13:00:54;;;;;;;6.43;1.47;;;12.90;67.50;;;;;;5078887;28;20865;-75
2023/01/09 13:03:27;;;;;;;3.27;1.20;;;13.00;67.80;;;;;;5087079;28;20472;-74
2023/01/09 13:05:56;;;;;;;2.13;1.30;;;13.00;67.20;;;;;;5091829;28;20446;-74
2023/01/09 13:08:29;;;;;;;3.60;1.47;;;13.00;67.50;;;;;;5073069;28;20906;-72
2023/01/09 13:11:01;;;;;;;2.93;1.40;;;13.00;67.40;;;;;;5072319;28;20523;-76
2023/01/09 13:13:35;;;;;;;2.60;1.20;;;13.00;67.00;;;;;;5072710;28;20434;-76
2023/01/09 13:16:08;;;;;;;2.50;1.20;;;12.90;67.30;;;;;;5072857;28;20490;-76
2023/01/09 13:18:41;;;;;;;3.73;2.07;;;12.90;67.60;;;;;;5072021;28;20990;-76
2023/01/09 13:21:08;;;;;;;2.17;1.30;;;12.80;67.20;;;;;;5072883;28;20931;-74